createdAt,value
2017-03-10T00:05:15.683Z,0
2017-03-10T00:15:29.947Z,0
2017-03-10T00:25:44.401Z,0
2017-03-10T00:35:58.587Z,0
2017-03-10T00:46:12.393Z,0
2017-03-10T00:56:25.577Z,0
2017-03-10T01:06:39.749Z,0
2017-03-10T01:16:54.816Z,0
2017-03-10T01:27:25.342Z,0
2017-03-10T01:37:21.526Z,0
2017-03-10T01:47:45.013Z,0
2017-03-10T01:57:51.827Z,0
2017-03-10T02:08:04.856Z,0
2017-03-10T02:18:19.293Z,0
2017-03-10T02:28:37.123Z,0
2017-03-10T02:39:05.245Z,0
2017-03-10T02:49:04.558Z,0
2017-03-10T02:59:21.879Z,0
2017-03-10T03:09:29.284Z,0
2017-03-10T03:19:40.909Z,0
2017-03-10T03:29:55.699Z,0
2017-03-10T03:40:10.474Z,0
2017-03-10T03:50:25.035Z,0
2017-03-10T04:00:38.609Z,0
2017-03-10T04:10:52.958Z,0
2017-03-10T04:21:06.374Z,0
2017-03-10T04:31:21.267Z,0
2017-03-10T04:41:35.999Z,0
2017-03-10T04:51:50.117Z,0
2017-03-10T05:02:04.123Z,0
2017-03-10T05:12:18.707Z,0
2017-03-10T05:22:33.179Z,4
2017-03-10T05:32:48.047Z,12
2017-03-10T05:43:01.203Z,64
2017-03-10T05:53:15.225Z,176
2017-03-10T06:03:29.633Z,620
2017-03-10T06:13:43.084Z,940
2017-03-10T06:23:56.604Z,1664
2017-03-10T06:34:11.455Z,1488
2017-03-10T06:44:25.202Z,2088
2017-03-10T06:54:40.180Z,2952
2017-03-10T07:04:54.816Z,3000
2017-03-10T07:15:08.439Z,4036
2017-03-10T07:25:23.050Z,4496
2017-03-10T07:35:36.200Z,5488
2017-03-10T07:45:49.365Z,8024
2017-03-10T08:06:17.127Z,10672
2017-03-10T08:16:31.523Z,10576
2017-03-10T08:26:47.973Z,15484
2017-03-10T08:36:58.580Z,14176
2017-03-10T08:47:14.193Z,13612
2017-03-10T08:57:26.808Z,37920
2017-03-10T09:07:41.762Z,19424
2017-03-10T09:17:55.452Z,33664
2017-03-10T09:28:10.799Z,21088
2017-03-10T09:38:22.690Z,19200
2017-03-10T09:48:36.241Z,21920
2017-03-10T09:58:49.761Z,43904
2017-03-10T10:09:04.784Z,40960
2017-03-10T10:19:19.065Z,41120
2017-03-10T10:29:34.263Z,29120
2017-03-10T10:39:47.633Z,30176
2017-03-10T10:50:01.795Z,64512
2017-03-10T11:00:15.094Z,62240
2017-03-10T11:10:41.984Z,16824
2017-03-10T11:20:43.603Z,29088
2017-03-10T11:31:01.932Z,55904
2017-03-10T11:41:12.715Z,57984
2017-03-10T11:51:27.320Z,54624
2017-03-10T12:11:55.461Z,50368
2017-03-10T12:22:09.554Z,41056
2017-03-10T12:32:24.399Z,45888
2017-03-10T12:42:39.340Z,35168
2017-03-10T12:52:54.002Z,37728
2017-03-10T13:03:08.218Z,29888
2017-03-10T13:13:21.614Z,19808
2017-03-10T13:23:53.002Z,24064
2017-03-10T13:33:51.112Z,31360
2017-03-10T13:44:05.358Z,19584
2017-03-10T13:54:19.030Z,49376
2017-03-10T14:04:32.993Z,36224
2017-03-10T14:14:47.283Z,24320
2017-03-10T14:25:07.583Z,20064
2017-03-10T14:35:14.675Z,17312
2017-03-10T14:45:29.132Z,14864
2017-03-10T14:55:43.384Z,13976
2017-03-10T15:05:57.212Z,17312
2017-03-10T15:16:10.861Z,16800
2017-03-10T15:26:24.627Z,17952
2017-03-10T15:36:39.331Z,18304
2017-03-10T15:46:54.398Z,16736
2017-03-10T15:57:08.506Z,10828
2017-03-10T16:07:22.521Z,9808
2017-03-10T16:17:35.733Z,8028
2017-03-10T16:27:50.212Z,5072
2017-03-10T16:38:04.472Z,4388
2017-03-10T16:48:19.259Z,3732
2017-03-10T16:58:33.012Z,3088
2017-03-10T17:08:48.094Z,1280
2017-03-10T17:19:03.090Z,584
2017-03-10T17:29:16.414Z,248
2017-03-10T17:39:30.235Z,68
2017-03-10T17:49:44.839Z,8
2017-03-10T17:59:58.794Z,0
2017-03-10T18:10:11.930Z,0
2017-03-10T18:20:27.094Z,0
2017-03-10T18:30:41.680Z,0
2017-03-10T18:40:57.071Z,0
2017-03-10T18:51:09.864Z,0
2017-03-10T19:01:23.135Z,0
2017-03-10T19:11:36.273Z,0
2017-03-10T19:21:51.232Z,0
2017-03-10T19:32:04.458Z,0
2017-03-10T19:42:19.124Z,0
2017-03-10T19:52:34.430Z,0
2017-03-10T20:02:49.050Z,0
2017-03-10T20:13:02.546Z,0
2017-03-10T20:23:15.732Z,0
2017-03-10T20:33:35.104Z,0
2017-03-10T20:43:43.979Z,0
2017-03-10T20:53:58.670Z,0
2017-03-10T21:04:13.647Z,0
2017-03-10T21:14:26.956Z,0
2017-03-10T21:24:41.348Z,0
2017-03-10T21:34:55.815Z,0
2017-03-10T21:45:09.385Z,0
2017-03-10T21:55:24.509Z,0
2017-03-10T22:05:37.651Z,0
2017-03-10T22:15:51.895Z,0
2017-03-10T22:26:06.397Z,0
2017-03-10T22:36:19.698Z,0
2017-03-10T22:46:33.046Z,0
2017-03-10T22:56:46.994Z,0
2017-03-10T23:07:01.283Z,0
2017-03-10T23:17:15.077Z,0
2017-03-10T23:27:28.219Z,0
2017-03-10T23:37:41.547Z,0
2017-03-10T23:47:55.091Z,0
2017-03-10T23:58:09.481Z,0
